Terminal Aerodrome Forecast
Issued by NWS Sterling, VA

Current Version | Previous Version | Graphics & Text | Print | Product List | Glossary On
Versions: 1 2 3 4 5 6 7 8 9 10 11 12 13
281
FTUS41 KLWX 261734
TAFMRB
TAF
KMRB 261734Z 2618/2718 29011G21KT P6SM SCT050
     FM262100 28012G19KT P6SM FEW250
     FM262300 28007KT P6SM FEW200
     FM270100 VRB03KT P6SM SKC
     FM270900 00000KT P6SM BKN100=

USA.gov is the U.S. government's official web portal to all federal, state and local government web resources and services.